Time;durP1;ratioP1;P1;durP2;ratioP2;P2;SDS_P1;SDS_P2;PMS_P1;PMS_P2;Temp;Humidity;BMP_temperature;BMP_pressure;BME280_temperature;BME280_humidity;BME280_pressure;Samples;Min_cycle;Max_cycle;Signal;HPM_P1;HPM_P2
2022/08/24 00:01:14;;;;;;;5.33;2.67;;;19.80;99.90;;;;;;5016186;28;20455;-54
2022/08/24 00:03:41;;;;;;;5.63;2.57;;;19.80;99.90;;;;;;5016117;28;20437;-54
2022/08/24 00:06:09;;;;;;;5.73;2.30;;;19.80;99.90;;;;;;5042410;28;20436;-55
2022/08/24 00:08:37;;;;;;;3.10;2.10;;;19.70;99.90;;;;;;5026170;28;20523;-55
2022/08/24 00:11:03;;;;;;;4.00;2.60;;;19.60;99.90;;;;;;5009985;28;20912;-54
2022/08/24 00:13:29;;;;;;;4.87;3.00;;;19.50;99.90;;;;;;5019711;28;20429;-55
2022/08/24 00:15:55;;;;;;;4.63;2.63;;;19.50;99.90;;;;;;5010967;28;20444;-54
2022/08/24 00:18:21;;;;;;;6.47;2.70;;;19.30;99.90;;;;;;5010498;28;20238;-55
2022/08/24 00:20:47;;;;;;;3.60;2.17;;;19.30;99.90;;;;;;5011018;28;20446;-54
2022/08/24 00:23:14;;;;;;;3.77;2.60;;;19.30;99.90;;;;;;5008808;28;20491;-54
2022/08/24 00:25:40;;;;;;;2.27;2.10;;;19.20;99.90;;;;;;5014281;28;20458;-54
2022/08/24 00:28:06;;;;;;;4.37;2.30;;;19.20;99.90;;;;;;5010849;28;20465;-54
2022/08/24 00:30:32;;;;;;;4.70;2.73;;;19.20;99.90;;;;;;5010121;28;20461;-55
2022/08/24 00:32:58;;;;;;;5.30;2.70;;;19.10;99.90;;;;;;5019791;28;20179;-55
2022/08/24 00:35:25;;;;;;;5.30;2.50;;;19.10;99.90;;;;;;5014494;28;20476;-57
2022/08/24 00:37:51;;;;;;;3.73;2.23;;;19.00;99.90;;;;;;5010069;28;20446;-54
2022/08/24 00:40:32;;;;;;;2.73;2.50;;;19.00;99.90;;;;;;5011806;28;20441;-54
2022/08/24 00:43:02;;;;;;;3.53;2.50;;;19.00;99.90;;;;;;5008305;28;20872;-55
2022/08/24 00:45:30;;;;;;;2.80;2.43;;;19.00;99.90;;;;;;5009159;28;20437;-55
2022/08/24 00:48:05;;;;;;;2.87;2.57;;;19.00;99.90;;;;;;5008708;28;20569;-54
2022/08/24 00:50:41;;;;;;;6.70;2.80;;;19.00;99.90;;;;;;5009299;28;20432;-55
2022/08/24 00:53:22;;;;;;;7.97;3.47;;;19.10;99.90;;;;;;5009154;28;20425;-54
2022/08/24 00:55:53;;;;;;;6.03;2.60;;;19.10;99.90;;;;;;5009818;28;20472;-53
2022/08/24 00:58:24;;;;;;;5.10;2.50;;;19.00;99.90;;;;;;5009150;28;20504;-58
2022/08/24 01:00:55;;;;;;;6.97;2.70;;;19.00;99.90;;;;;;5008726;28;20446;-57
2022/08/24 01:03:21;;;;;;;5.20;2.90;;;19.00;99.90;;;;;;5011098;28;20449;-54
2022/08/24 01:05:47;;;;;;;5.97;2.70;;;19.00;99.90;;;;;;5014701;28;20437;-55
2022/08/24 01:08:14;;;;;;;5.03;3.00;;;19.00;99.90;;;;;;5015711;28;20811;-54
2022/08/24 01:10:48;;;;;;;3.83;2.87;;;19.00;99.90;;;;;;5024153;28;20537;-54
2022/08/24 01:13:14;;;;;;;6.53;2.83;;;19.00;99.90;;;;;;5031586;28;21083;-54
2022/08/24 01:15:44;;;;;;;4.27;3.07;;;18.90;99.90;;;;;;5029877;28;20499;-55
2022/08/24 01:21:22;;;;;;;3.83;3.10;;;18.80;99.90;;;;;;5030295;28;20805;-54
2022/08/24 01:23:54;;;;;;;7.57;2.50;;;18.90;99.90;;;;;;5031134;28;20530;-54
2022/08/24 01:26:25;;;;;;;5.73;2.87;;;18.90;99.90;;;;;;5028844;28;20457;-53
2022/08/24 01:28:59;;;;;;;3.27;2.70;;;18.80;99.90;;;;;;5017696;28;20589;-55
2022/08/24 01:31:24;;;;;;;3.10;2.53;;;18.80;99.90;;;;;;5012826;28;20435;-54
2022/08/24 01:33:53;;;;;;;4.73;2.73;;;18.80;99.90;;;;;;5021870;28;20527;-54
2022/08/24 01:36:29;;;;;;;4.13;2.70;;;18.80;99.90;;;;;;5027431;28;20529;-54
2022/08/24 01:39:01;;;;;;;6.90;3.10;;;18.80;99.90;;;;;;5014771;28;20434;-54
2022/08/24 01:41:27;;;;;;;5.07;2.67;;;18.70;99.90;;;;;;5030390;28;20941;-54
2022/08/24 01:43:52;;;;;;;3.40;2.50;;;18.70;99.90;;;;;;5027216;28;20449;-54
2022/08/24 01:46:18;;;;;;;3.27;2.97;;;18.60;99.90;;;;;;5027913;28;20791;-54
2022/08/24 01:48:43;;;;;;;4.50;2.87;;;18.60;99.90;;;;;;5021763;28;20219;-54
2022/08/24 01:51:09;;;;;;;6.60;3.30;;;18.70;99.90;;;;;;5029928;28;20223;-54
2022/08/24 01:53:35;;;;;;;4.17;3.20;;;18.70;99.90;;;;;;5029707;28;20217;-54
2022/08/24 01:56:01;;;;;;;6.43;2.67;;;18.70;99.90;;;;;;5025638;28;21026;-54
2022/08/24 01:58:27;;;;;;;6.10;3.17;;;18.70;99.90;;;;;;5024910;28;20857;-54
2022/08/24 02:00:53;;;;;;;3.67;3.30;;;18.70;99.90;;;;;;5022806;28;20453;-54
2022/08/24 02:03:19;;;;;;;3.20;2.67;;;18.70;99.90;;;;;;5029472;28;20195;-54
2022/08/24 02:05:44;;;;;;;2.67;2.40;;;18.70;99.90;;;;;;5028356;28;20234;-54
2022/08/24 02:08:10;;;;;;;7.80;2.87;;;18.70;99.90;;;;;;5018715;28;20506;-54
2022/08/24 02:10:36;;;;;;;5.10;2.90;;;18.60;99.90;;;;;;5025134;28;20201;-54
2022/08/24 02:13:02;;;;;;;5.43;2.50;;;18.60;99.90;;;;;;5039145;28;20191;-54
2022/08/24 02:15:32;;;;;;;5.97;2.97;;;18.50;99.90;;;;;;5029604;28;20194;-54
2022/08/24 02:17:58;;;;;;;3.30;2.63;;;18.50;99.90;;;;;;5024812;28;20444;-54
2022/08/24 02:20:24;;;;;;;9.63;3.27;;;18.40;99.90;;;;;;5044984;28;20441;-54
2022/08/24 02:22:51;;;;;;;4.10;3.20;;;18.50;99.90;;;;;;5022798;28;20493;-54
2022/08/24 02:25:18;;;;;;;7.50;3.40;;;18.50;99.90;;;;;;5021091;28;20548;-54
2022/08/24 02:27:44;;;;;;;4.77;3.27;;;18.40;99.90;;;;;;5028599;28;20445;-54
2022/08/24 02:30:10;;;;;;;7.83;3.47;;;18.30;99.90;;;;;;5025091;28;20446;-53
2022/08/24 02:32:35;;;;;;;6.53;2.90;;;18.30;99.90;;;;;;5028041;28;20441;-53
2022/08/24 02:35:01;;;;;;;3.90;3.23;;;18.30;99.90;;;;;;5027649;28;20217;-53
2022/08/24 02:37:27;;;;;;;6.67;3.50;;;18.30;99.90;;;;;;5019745;28;20183;-53
2022/08/24 02:39:52;;;;;;;4.60;3.20;;;18.30;99.90;;;;;;5023265;28;20191;-53
2022/08/24 02:42:18;;;;;;;5.17;3.10;;;18.30;99.90;;;;;;5021261;28;20274;-54
2022/08/24 02:44:44;;;;;;;3.87;3.40;;;18.30;99.90;;;;;;5024227;28;20223;-54
2022/08/24 02:47:09;;;;;;;5.97;3.67;;;18.30;99.90;;;;;;5017753;28;20183;-53
2022/08/24 02:49:36;;;;;;;5.00;3.50;;;18.30;99.90;;;;;;5032642;28;20645;-53
2022/08/24 02:52:02;;;;;;;7.93;3.50;;;18.30;99.90;;;;;;5020865;28;20250;-53
2022/08/24 02:54:28;;;;;;;6.17;3.63;;;18.30;99.90;;;;;;5029004;28;20452;-52
2022/08/24 02:56:54;;;;;;;6.10;3.90;;;18.20;99.90;;;;;;5020620;28;20935;-54
2022/08/24 02:59:21;;;;;;;3.70;2.90;;;18.20;99.90;;;;;;5032206;28;20441;-53
2022/08/24 03:01:47;;;;;;;4.50;3.50;;;18.30;99.90;;;;;;5024323;28;20458;-54
2022/08/24 03:04:13;;;;;;;6.03;3.30;;;18.40;99.90;;;;;;5028310;28;20442;-54
2022/08/24 03:06:39;;;;;;;5.37;3.50;;;18.30;99.90;;;;;;5035752;28;20451;-53
2022/08/24 03:09:05;;;;;;;5.63;3.70;;;18.30;99.90;;;;;;5020108;28;20496;-53
2022/08/24 03:11:31;;;;;;;4.13;3.30;;;18.30;99.90;;;;;;5032666;28;20683;-53
2022/08/24 03:14:00;;;;;;;4.13;3.30;;;18.30;99.90;;;;;;5028933;28;20441;-53
2022/08/24 03:16:27;;;;;;;4.90;3.63;;;18.30;99.90;;;;;;5032702;28;20195;-54
2022/08/24 03:18:53;;;;;;;5.33;3.40;;;18.30;99.90;;;;;;5017925;28;20799;-54
2022/08/24 03:21:19;;;;;;;8.90;3.63;;;18.30;99.90;;;;;;5032401;28;20449;-52
2022/08/24 03:23:45;;;;;;;5.13;3.00;;;18.30;99.90;;;;;;5033666;28;20237;-54
2022/08/24 03:26:11;;;;;;;4.37;3.10;;;18.30;99.90;;;;;;5028794;28;21196;-53
2022/08/24 03:28:37;;;;;;;4.73;3.27;;;18.30;99.90;;;;;;5025663;28;20484;-53
2022/08/24 03:31:03;;;;;;;6.87;4.00;;;18.20;99.90;;;;;;5022836;28;20442;-53
2022/08/24 03:33:29;;;;;;;6.67;3.47;;;18.20;99.90;;;;;;5020870;28;20199;-53
2022/08/24 03:35:55;;;;;;;7.50;3.63;;;18.10;99.90;;;;;;5028295;28;20450;-53
2022/08/24 03:38:21;;;;;;;6.70;4.00;;;18.10;99.90;;;;;;5031092;28;20562;-53
2022/08/24 03:40:46;;;;;;;7.73;3.43;;;18.10;99.90;;;;;;5026389;28;20650;-53
2022/08/24 03:43:44;;;;;;;10.00;3.40;;;18.10;99.90;;;;;;5032163;28;20525;-53
2022/08/24 03:46:00;;;;;;;5.53;3.50;;;18.10;99.90;;;;;;5016524;28;20199;-54
2022/08/24 03:48:27;;;;;;;6.20;3.73;;;18.00;99.90;;;;;;5017749;28;20478;-53
2022/08/24 03:50:53;;;;;;;9.57;4.10;;;18.00;99.90;;;;;;5025926;28;20784;-53
2022/08/24 03:53:19;;;;;;;4.93;3.67;;;18.00;99.90;;;;;;5030613;28;20449;-53
2022/08/24 03:55:45;;;;;;;5.83;4.10;;;18.00;99.90;;;;;;5031860;28;20437;-53
2022/08/24 03:58:11;;;;;;;7.13;3.17;;;18.00;99.90;;;;;;5027736;28;20460;-53
2022/08/24 04:00:41;;;;;;;6.27;3.50;;;18.00;99.90;;;;;;5026042;28;20595;-55
2022/08/24 04:03:08;;;;;;;8.97;4.07;;;17.90;99.90;;;;;;5027520;28;20195;-52
2022/08/24 04:05:35;;;;;;;6.30;3.73;;;17.90;1.00;;;;;;5036180;28;20502;-53
2022/08/24 04:08:01;;;;;;;11.33;4.50;;;17.90;1.00;;;;;;5024574;28;20477;-53
2022/08/24 04:10:27;;;;;;;5.90;3.47;;;18.00;1.00;;;;;;5016419;28;20457;-53
2022/08/24 04:12:53;;;;;;;6.03;3.83;;;18.00;1.00;;;;;;5027908;28;20437;-53
2022/08/24 04:15:19;;;;;;;4.30;3.87;;;18.00;1.00;;;;;;5028995;28;20449;-53
2022/08/24 04:17:44;;;;;;;5.13;4.27;;;17.90;1.00;;;;;;5028941;28;20195;-53
2022/08/24 04:20:10;;;;;;;9.90;4.07;;;18.00;1.00;;;;;;5021197;28;20253;-53
2022/08/24 04:22:36;;;;;;;6.77;4.03;;;18.00;1.00;;;;;;5028651;28;20234;-53
2022/08/24 04:25:03;;;;;;;8.33;4.00;;;18.00;1.00;;;;;;5031830;28;20438;-53
2022/08/24 04:27:29;;;;;;;6.63;4.23;;;17.90;1.00;;;;;;5031955;28;20198;-53
2022/08/24 04:29:55;;;;;;;7.83;3.90;;;17.90;1.00;;;;;;5030879;28;20466;-56
2022/08/24 04:32:20;;;;;;;8.83;3.83;;;17.90;1.00;;;;;;5031695;28;20691;-53
2022/08/24 04:34:46;;;;;;;6.03;3.70;;;17.90;1.00;;;;;;5017763;28;20192;-53
2022/08/24 04:37:13;;;;;;;8.13;4.00;;;17.90;1.00;;;;;;5017096;28;20325;-53
2022/08/24 04:39:40;;;;;;;4.23;3.40;;;17.90;1.00;;;;;;5030586;28;21012;-52
2022/08/24 04:42:07;;;;;;;4.17;3.80;;;17.80;1.00;;;;;;5034804;28;20786;-53
2022/08/24 04:44:32;;;;;;;4.90;3.70;;;17.80;1.00;;;;;;5028700;28;20480;-53
2022/08/24 04:46:58;;;;;;;4.87;3.97;;;17.90;1.00;;;;;;5017301;28;20441;-53
2022/08/24 04:49:24;;;;;;;9.30;3.90;;;17.90;1.00;;;;;;5027304;28;20340;-53
2022/08/24 04:51:49;;;;;;;8.07;4.00;;;17.90;1.00;;;;;;5030235;28;20248;-53
2022/08/24 04:54:15;;;;;;;7.90;3.90;;;17.90;1.00;;;;;;5031331;28;20297;-52
2022/08/24 04:56:41;;;;;;;11.93;4.20;;;17.90;1.00;;;;;;5021670;28;20184;-52
2022/08/24 04:59:07;;;;;;;8.47;4.60;;;17.90;1.00;;;;;;5026050;28;20195;-52
2022/08/24 05:01:32;;;;;;;11.07;4.67;;;17.90;1.00;;;;;;5028027;28;20179;-53
2022/08/24 05:03:58;;;;;;;8.50;4.70;;;17.80;1.00;;;;;;5027273;28;20192;-53
2022/08/24 05:06:27;;;;;;;6.03;4.07;;;17.80;1.00;;;;;;5029591;28;20221;-52
2022/08/24 05:08:53;;;;;;;7.30;4.90;;;17.90;1.00;;;;;;5024163;28;20245;-53
2022/08/24 05:11:20;;;;;;;6.83;4.30;;;17.90;1.00;;;;;;5029317;28;20481;-53
2022/08/24 05:13:46;;;;;;;10.50;4.23;;;17.90;1.00;;;;;;5019658;28;20449;-55
2022/08/24 05:16:15;;;;;;;13.73;4.70;;;17.90;1.00;;;;;;5029819;28;20431;-53
2022/08/24 05:18:41;;;;;;;5.73;3.70;;;17.90;1.00;;;;;;5028224;28;20575;-52
2022/08/24 05:21:08;;;;;;;6.77;4.40;;;17.90;1.00;;;;;;5030111;28;20841;-52
2022/08/24 05:23:36;;;;;;;6.73;4.03;;;17.90;1.00;;;;;;5030951;28;20473;-53
2022/08/24 05:26:11;;;;;;;7.33;4.90;;;17.90;1.00;;;;;;5020392;28;20452;-53
2022/08/24 05:28:38;;;;;;;9.60;4.13;;;18.00;1.00;;;;;;5029396;28;20468;-52
2022/08/24 05:31:16;;;;;;;7.93;4.40;;;18.00;1.00;;;;;;5028373;28;20943;-53
2022/08/24 05:33:42;;;;;;;8.60;5.30;;;18.00;1.00;;;;;;5025928;28;20947;-53
2022/08/24 05:36:27;;;;;;;9.63;4.30;;;18.10;1.00;;;;;;5026499;28;20493;-53
2022/08/24 05:38:55;;;;;;;5.50;4.07;;;18.20;1.00;;;;;;5029286;28;20547;-58
2022/08/24 05:41:21;;;;;;;7.00;4.50;;;18.20;1.00;;;;;;5028284;28;20829;-53
2022/08/24 05:43:47;;;;;;;9.43;4.80;;;18.30;1.00;;;;;;5030557;28;20430;-52
2022/08/24 05:46:13;;;;;;;6.63;4.47;;;18.40;1.00;;;;;;5022505;28;20645;-53
2022/08/24 05:48:39;;;;;;;8.17;4.53;;;18.40;1.00;;;;;;5030215;28;20982;-53
2022/08/24 05:51:06;;;;;;;11.27;4.53;;;18.60;1.00;;;;;;5020540;28;20457;-53
2022/08/24 05:53:32;;;;;;;7.10;5.10;;;18.60;1.00;;;;;;5019396;28;20187;-53
2022/08/24 05:56:03;;;;;;;7.43;5.03;;;18.70;1.00;;;;;;5022869;28;20461;-52
2022/08/24 05:58:28;;;;;;;11.27;4.57;;;19.00;1.00;;;;;;5023185;28;20489;-53
2022/08/24 06:00:54;;;;;;;8.23;4.40;;;19.10;1.00;;;;;;5017297;28;21389;-53
2022/08/24 06:03:19;;;;;;;9.10;4.87;;;19.30;1.00;;;;;;5029062;28;20195;-53
2022/08/24 06:05:46;;;;;;;13.73;4.97;;;19.50;1.00;;;;;;5021930;28;20252;-53
2022/08/24 06:08:13;;;;;;;8.50;5.17;;;19.70;1.00;;;;;;5025626;28;21024;-53
2022/08/24 06:10:44;;;;;;;9.13;4.60;;;19.80;99.90;;;;;;5027493;28;20437;-53
2022/08/24 06:13:10;;;;;;;8.37;4.90;;;20.00;99.90;;;;;;5027034;28;20795;-53
2022/08/24 06:15:37;;;;;;;8.30;4.80;;;20.20;99.90;;;;;;5014077;28;20951;-53
2022/08/24 06:18:04;;;;;;;7.07;4.20;;;20.40;99.90;;;;;;5018795;28;20477;-53
2022/08/24 06:20:31;;;;;;;5.33;4.17;;;20.60;99.90;;;;;;5023418;28;20468;-53
2022/08/24 06:22:56;;;;;;;11.00;4.43;;;20.80;99.90;;;;;;5021619;28;20485;-55
2022/08/24 06:28:06;;;;;;;8.70;4.17;;;21.10;99.90;;;;;;5027975;28;20280;-53
2022/08/24 06:30:32;;;;;;;13.70;4.53;;;21.30;99.90;;;;;;5032222;28;20438;-54
2022/08/24 06:32:59;;;;;;;7.53;4.70;;;21.50;99.90;;;;;;5028263;28;20191;-54
2022/08/24 06:35:25;;;;;;;10.87;4.13;;;21.70;99.90;;;;;;5020647;28;20555;-58
2022/08/24 06:37:51;;;;;;;8.83;4.10;;;21.90;99.90;;;;;;5022161;28;20436;-59
2022/08/24 06:40:19;;;;;;;10.07;4.47;;;22.00;99.90;;;;;;5030951;28;20187;-59
2022/08/24 06:42:45;;;;;;;9.93;4.20;;;22.20;99.90;;;;;;5031341;28;20182;-59
2022/08/24 06:45:11;;;;;;;4.80;3.90;;;22.30;99.90;;;;;;5032254;28;20450;-59
2022/08/24 06:47:37;;;;;;;8.20;4.30;;;22.50;99.90;;;;;;5028632;28;20433;-60
2022/08/24 06:50:05;;;;;;;11.77;4.60;;;22.70;99.90;;;;;;5024984;28;21049;-60
2022/08/24 06:52:31;;;;;;;6.50;4.13;;;22.90;99.90;;;;;;5021404;28;20443;-59
2022/08/24 06:54:57;;;;;;;6.13;3.50;;;23.10;99.90;;;;;;5033644;28;20509;-58
2022/08/24 06:57:23;;;;;;;7.83;4.47;;;23.20;99.90;;;;;;5035634;28;20449;-60
2022/08/24 06:59:48;;;;;;;7.90;3.80;;;23.30;99.90;;;;;;5052360;28;20187;-59
2022/08/24 07:02:17;;;;;;;7.50;4.67;;;23.40;99.90;;;;;;5038130;28;20620;-58
2022/08/24 07:04:44;;;;;;;7.00;3.60;;;23.50;99.90;;;;;;5035511;28;20187;-59
2022/08/24 07:07:10;;;;;;;10.93;3.73;;;23.60;99.90;;;;;;5036632;28;20461;-58
2022/08/24 07:09:36;;;;;;;9.23;4.20;;;23.90;99.90;;;;;;5036997;28;20493;-58
2022/08/24 07:12:02;;;;;;;7.90;4.20;;;24.10;99.90;;;;;;5036755;28;20850;-60
2022/08/24 07:14:28;;;;;;;9.47;4.63;;;24.40;99.90;;;;;;5022681;28;20577;-59
2022/08/24 07:16:53;;;;;;;10.30;3.70;;;24.60;99.90;;;;;;5027775;28;20420;-59
2022/08/24 07:19:19;;;;;;;6.73;3.80;;;24.80;99.90;;;;;;5035736;28;20253;-58
2022/08/24 07:21:44;;;;;;;7.33;4.03;;;24.90;99.90;;;;;;5033177;28;20310;-57
2022/08/24 07:24:10;;;;;;;7.67;4.23;;;25.10;99.90;;;;;;5029476;28;20530;-58
2022/08/24 07:26:37;;;;;;;8.53;4.30;;;25.20;99.90;;;;;;5017006;28;20242;-51
2022/08/24 07:29:13;;;;;;;8.43;4.50;;;25.30;99.90;;;;;;5029820;28;20566;-49
2022/08/24 07:31:39;;;;;;;10.20;4.30;;;25.40;99.90;;;;;;5023693;28;20445;-51
2022/08/24 07:34:08;;;;;;;9.03;4.20;;;25.30;99.90;;;;;;5027730;28;20945;-51
2022/08/24 07:36:35;;;;;;;8.00;4.00;;;25.20;99.90;;;;;;5016752;28;20958;-51
2022/08/24 07:39:01;;;;;;;8.70;4.23;;;25.50;99.90;;;;;;5026549;28;20446;-51
2022/08/24 07:41:27;;;;;;;11.27;4.00;;;25.50;99.90;;;;;;5019330;28;20500;-51
2022/08/24 07:43:55;;;;;;;8.30;3.33;;;25.80;99.90;;;;;;5033502;28;20453;-51
2022/08/24 07:46:20;;;;;;;5.93;4.00;;;26.10;99.90;;;;;;5036182;28;20452;-48
2022/08/24 07:48:46;;;;;;;6.50;3.83;;;26.30;99.90;;;;;;5033366;28;20450;-48
2022/08/24 07:51:14;;;;;;;8.70;3.90;;;26.30;99.90;;;;;;5028910;28;20198;-49
2022/08/24 07:53:40;;;;;;;6.87;4.30;;;26.60;99.90;;;;;;5033370;28;20414;-49
2022/08/24 07:56:06;;;;;;;11.33;3.90;;;26.80;99.90;;;;;;5022734;28;20516;-48
2022/08/24 07:58:32;;;;;;;8.80;4.10;;;27.00;99.90;;;;;;5030877;28;20776;-49
2022/08/24 08:00:58;;;;;;;10.20;4.00;;;27.00;99.90;;;;;;5032632;28;20519;-49
2022/08/24 08:03:26;;;;;;;8.23;4.23;;;27.30;99.90;;;;;;5037472;28;20179;-49
2022/08/24 08:06:00;;;;;;;6.67;3.80;;;27.60;99.90;;;;;;5026433;28;21222;-49
2022/08/24 08:08:27;;;;;;;8.50;4.13;;;27.80;99.90;;;;;;5022767;28;20482;-48
2022/08/24 08:10:53;;;;;;;5.33;4.13;;;28.00;99.90;;;;;;5045796;28;20955;-49
2022/08/24 08:13:19;;;;;;;4.77;3.60;;;28.10;99.90;;;;;;5031635;28;20442;-48
2022/08/24 08:15:44;;;;;;;6.50;3.90;;;28.30;99.90;;;;;;5032498;28;20194;-48
2022/08/24 08:18:11;;;;;;;6.60;4.07;;;28.40;99.90;;;;;;5035953;28;20459;-59
2022/08/24 08:20:39;;;;;;;7.20;3.97;;;28.50;99.90;;;;;;5031903;28;20214;-58
2022/08/24 08:25:53;;;;;;;9.07;4.10;;;28.90;99.90;;;;;;5014971;28;20477;-56
2022/08/24 08:28:20;;;;;;;10.50;3.80;;;29.30;99.90;;;;;;5026043;28;20470;-59
2022/08/24 08:30:46;;;;;;;5.60;4.00;;;29.60;99.90;;;;;;5015737;28;20476;-59
2022/08/24 08:33:12;;;;;;;5.73;3.23;;;29.70;99.90;;;;;;5032248;28;20493;-59
2022/08/24 08:35:39;;;;;;;7.40;3.53;;;29.80;99.90;;;;;;5019093;28;20821;-59
2022/08/24 08:38:06;;;;;;;7.83;3.60;;;29.80;99.90;;;;;;5020189;28;20545;-59
2022/08/24 08:40:43;;;;;;;6.40;3.50;;;29.90;99.90;;;;;;5024526;28;20815;-56
2022/08/24 08:43:35;;;;;;;5.87;3.93;;;29.90;99.90;;;;;;5031423;28;20475;-56
2022/08/24 08:46:22;;;;;;;8.00;3.80;;;30.00;99.90;;;;;;5032471;28;20478;-59
2022/08/24 08:49:07;;;;;;;5.10;3.50;;;30.30;99.90;;;;;;5029927;28;20466;-59
2022/08/24 08:52:10;;;;;;;5.97;3.57;;;30.30;99.90;;;;;;5023877;28;20461;-59
2022/08/24 08:54:58;;;;;;;8.43;3.70;;;30.60;99.90;;;;;;5031235;28;20417;-59
2022/08/24 08:57:53;;;;;;;8.30;3.20;;;30.90;99.90;;;;;;5032528;28;20394;-56
2022/08/24 09:00:23;;;;;;;8.17;3.60;;;31.00;99.90;;;;;;5022809;28;20509;-59
2022/08/24 09:03:08;;;;;;;4.90;3.80;;;30.90;99.90;;;;;;5030957;28;20472;-59
2022/08/24 09:06:11;;;;;;;9.57;3.93;;;30.90;99.90;;;;;;5045725;28;20475;-59
2022/08/24 09:08:56;;;;;;;8.87;4.30;;;30.80;99.90;;;;;;5031978;28;20495;-59
2022/08/24 09:11:25;;;;;;;8.90;3.40;;;30.60;99.90;;;;;;5030771;28;20804;-59
2022/08/24 09:14:09;;;;;;;6.93;3.63;;;30.40;99.90;;;;;;5027905;28;20457;-59
2022/08/24 09:16:56;;;;;;;6.40;3.60;;;30.60;99.90;;;;;;5032037;28;20902;-55
2022/08/24 09:20:10;;;;;;;11.70;3.70;;;30.60;99.90;;;;;;5031692;28;20422;-58
2022/08/24 09:22:46;;;;;;;7.13;3.60;;;30.50;99.90;;;;;;5029208;28;20481;-59
2022/08/24 09:25:49;;;;;;;6.10;3.33;;;30.40;99.90;;;;;;5031777;28;20479;-59
2022/08/24 09:28:43;;;;;;;6.93;3.50;;;30.50;99.90;;;;;;5038020;28;20471;-58
2022/08/24 09:31:24;;;;;;;8.70;3.60;;;30.40;99.90;;;;;;5030800;28;20803;-59
2022/08/24 09:34:17;;;;;;;5.73;3.40;;;30.30;99.90;;;;;;5030703;28;21006;-59
2022/08/24 09:36:52;;;;;;;8.13;3.70;;;30.30;99.90;;;;;;5031425;28;20899;-54
2022/08/24 09:39:20;;;;;;;10.03;3.43;;;30.10;99.90;;;;;;5031390;28;20504;-58
2022/08/24 09:42:13;;;;;;;4.93;3.10;;;30.00;99.90;;;;;;5030412;28;20445;-58
2022/08/24 09:44:57;;;;;;;6.03;3.13;;;29.90;99.90;;;;;;5031307;28;20414;-57
2022/08/24 09:47:50;;;;;;;6.10;3.17;;;29.70;99.90;;;;;;5031319;28;20429;-57
2022/08/24 09:50:28;;;;;;;7.07;3.87;;;29.20;99.90;;;;;;5031282;28;20432;-58
2022/08/24 09:53:15;;;;;;;6.60;3.57;;;29.10;99.90;;;;;;5030378;28;20448;-58
2022/08/24 09:56:19;;;;;;;6.30;3.20;;;29.00;99.90;;;;;;5031174;28;20418;-59
2022/08/24 09:59:15;;;;;;;6.23;3.00;;;28.90;99.90;;;;;;5039975;28;20492;-59
2022/08/24 10:02:01;;;;;;;5.20;3.37;;;28.90;99.90;;;;;;5027708;28;20804;-59
2022/08/24 10:04:31;;;;;;;4.20;3.70;;;28.80;99.90;;;;;;5007433;28;20434;-59
2022/08/24 10:07:02;;;;;;;7.20;3.23;;;28.70;99.90;;;;;;5019518;28;20446;-58
2022/08/24 10:10:08;;;;;;;9.83;3.87;;;28.90;99.90;;;;;;5045187;28;20469;-59
2022/08/24 10:12:40;;;;;;;14.07;3.90;;;29.30;99.90;;;;;;5021152;28;20441;-59
2022/08/24 10:15:17;;;;;;;8.50;2.97;;;29.60;99.90;;;;;;5030612;28;20460;-59
2022/08/24 10:18:23;;;;;;;4.57;3.10;;;29.70;99.90;;;;;;5031282;28;20440;-60
2022/08/24 10:21:11;;;;;;;4.20;3.47;;;30.00;99.90;;;;;;5020447;28;20441;-59
2022/08/24 10:23:50;;;;;;;7.57;3.53;;;30.10;99.90;;;;;;5029565;28;21042;-59
2022/08/24 10:26:19;;;;;;;10.07;3.17;;;30.40;99.90;;;;;;5030197;28;20445;-56
2022/08/24 10:29:06;;;;;;;9.27;3.13;;;30.70;99.90;;;;;;5029974;28;20465;-61
2022/08/24 10:31:40;;;;;;;7.67;3.40;;;30.90;99.90;;;;;;5032489;28;20796;-60
2022/08/24 10:34:43;;;;;;;4.57;2.70;;;31.40;99.90;;;;;;5030713;28;20444;-60
2022/08/24 10:37:25;;;;;;;7.93;3.10;;;31.70;99.90;;;;;;5030510;28;20784;-60
2022/08/24 10:40:19;;;;;;;4.40;3.30;;;31.90;99.90;;;;;;5032720;28;20440;-60
2022/08/24 10:46:15;;;;;;;4.73;3.10;;;32.40;99.90;;;;;;5050251;28;20482;-60
2022/08/24 10:48:55;;;;;;;6.43;2.60;;;33.10;99.90;;;;;;5031091;28;20958;-61
2022/08/24 10:51:58;;;;;;;3.77;2.90;;;33.60;99.90;;;;;;5015400;28;20503;-61
2022/08/24 10:54:24;;;;;;;4.50;2.60;;;33.70;99.90;;;;;;5015330;28;20504;-60
2022/08/24 10:57:34;;;;;;;8.73;2.90;;;33.90;99.90;;;;;;5013903;28;20431;-61
2022/08/24 11:00:14;;;;;;;3.10;2.80;;;34.00;99.90;;;;;;5023007;28;20203;-61
2022/08/24 11:02:43;;;;;;;4.70;2.57;;;34.30;99.90;;;;;;5030312;28;20563;-61
2022/08/24 11:05:10;;;;;;;6.60;2.57;;;34.60;99.90;;;;;;5030346;28;20503;-61
2022/08/24 11:07:51;;;;;;;3.10;2.37;;;34.90;99.90;;;;;;5030622;28;20413;-56
2022/08/24 11:10:27;;;;;;;6.70;2.70;;;35.40;99.90;;;;;;5029486;28;20441;-60
2022/08/24 11:12:53;;;;;;;5.27;2.40;;;35.90;99.90;;;;;;5030338;28;20425;-57
2022/08/24 11:15:26;;;;;;;3.97;2.40;;;35.80;99.90;;;;;;5030097;28;20886;-56
2022/08/24 11:17:56;;;;;;;5.83;2.67;;;35.70;99.90;;;;;;5032610;28;20170;-61
2022/08/24 11:20:28;;;;;;;2.87;2.60;;;36.00;99.90;;;;;;5032856;28;20525;-61
2022/08/24 11:23:05;;;;;;;4.60;2.70;;;35.60;99.90;;;;;;5034158;28;20556;-61
2022/08/24 11:25:34;;;;;;;4.97;2.67;;;35.50;99.90;;;;;;5033722;28;20405;-61
2022/08/24 11:28:19;;;;;;;11.77;2.80;;;35.60;99.90;;;;;;5033499;28;20406;-57
2022/08/24 11:30:44;;;;;;;4.53;3.47;;;35.60;99.90;;;;;;5033521;28;20949;-62
2022/08/24 11:33:47;;;;;;;3.40;2.47;;;35.90;99.90;;;;;;5033593;28;20471;-62
2022/08/24 11:36:20;;;;;;;3.93;2.53;;;36.00;99.90;;;;;;5029877;28;20187;-62
2022/08/24 11:38:48;;;;;;;5.17;2.73;;;36.30;99.90;;;;;;5033636;28;20422;-61
2022/08/24 11:41:18;;;;;;;5.17;2.67;;;36.40;99.90;;;;;;5032570;28;20545;-61
2022/08/24 11:43:59;;;;;;;7.83;2.57;;;36.30;99.90;;;;;;5033427;28;20402;-61
2022/08/24 11:46:53;;;;;;;8.70;3.03;;;36.40;99.90;;;;;;5033238;28;20440;-61
2022/08/24 11:49:47;;;;;;;3.40;2.80;;;36.40;99.90;;;;;;5033172;28;20476;-61
2022/08/24 11:52:22;;;;;;;5.27;2.80;;;36.70;99.90;;;;;;5031287;28;20814;-62
2022/08/24 11:55:01;;;;;;;4.90;2.33;;;37.00;99.90;;;;;;5033409;28;20409;-61
2022/08/24 11:57:37;;;;;;;9.13;2.90;;;37.10;99.90;;;;;;5033200;28;20389;-56
2022/08/24 12:00:21;;;;;;;6.83;2.60;;;37.30;99.90;;;;;;5033384;28;20535;-62
2022/08/24 12:03:17;;;;;;;3.30;2.73;;;37.50;99.90;;;;;;5032018;28;20449;-61
2022/08/24 12:06:12;;;;;;;3.37;2.67;;;37.20;99.90;;;;;;5033115;28;20413;-55
2022/08/24 12:08:40;;;;;;;5.07;2.50;;;36.80;99.90;;;;;;5032982;28;20463;-61
2022/08/24 12:11:18;;;;;;;3.60;2.50;;;36.70;99.90;;;;;;5032264;28;20438;-61
2022/08/24 12:13:58;;;;;;;4.03;2.60;;;37.00;99.90;;;;;;5032929;28;20414;-57
2022/08/24 12:16:23;;;;;;;14.93;3.30;;;37.20;99.90;;;;;;5032802;28;20519;-64
2022/08/24 12:19:10;;;;;;;5.93;2.67;;;37.30;99.90;;;;;;5032936;28;20829;-61
2022/08/24 12:21:39;;;;;;;3.50;2.70;;;37.30;99.90;;;;;;5031562;28;20179;-62
2022/08/24 12:24:07;;;;;;;6.00;2.70;;;37.40;99.90;;;;;;5032785;28;20860;-61
2022/08/24 12:26:50;;;;;;;3.43;2.80;;;37.00;99.90;;;;;;5032656;28;20501;-61
2022/08/24 12:29:29;;;;;;;4.40;2.63;;;37.20;99.90;;;;;;5031974;28;20464;-56
2022/08/24 12:32:00;;;;;;;2.83;2.37;;;36.90;99.90;;;;;;5031215;28;20473;-57
2022/08/24 12:34:44;;;;;;;3.73;2.20;;;36.70;99.90;;;;;;5032205;28;21010;-61
2022/08/24 12:37:12;;;;;;;3.67;2.53;;;36.30;99.90;;;;;;5032830;28;20881;-61
2022/08/24 12:39:52;;;;;;;10.43;3.33;;;36.20;99.90;;;;;;5032499;28;20418;-61
2022/08/24 12:42:23;;;;;;;4.00;2.77;;;36.40;99.90;;;;;;5030015;28;20503;-61
2022/08/24 12:45:00;;;;;;;4.13;2.40;;;36.80;99.90;;;;;;5032493;28;20827;-61
2022/08/24 12:47:36;;;;;;;7.00;3.03;;;37.10;99.90;;;;;;5032437;28;20834;-61
2022/08/24 12:50:25;;;;;;;3.63;2.80;;;37.00;99.90;;;;;;5030353;28;20938;-59
2022/08/24 12:53:09;;;;;;;3.83;2.40;;;36.90;99.90;;;;;;5025979;28;21109;-61
2022/08/24 12:55:56;;;;;;;3.43;2.70;;;37.00;99.90;;;;;;5032062;28;20402;-61
2022/08/24 12:58:53;;;;;;;4.17;2.50;;;37.30;99.90;;;;;;5016293;28;20445;-62
2022/08/24 13:01:20;;;;;;;7.00;2.30;;;37.10;99.90;;;;;;5032933;28;20432;-61
2022/08/24 13:04:01;;;;;;;6.67;2.73;;;37.30;99.90;;;;;;5027165;28;20434;-61
2022/08/24 13:06:57;;;;;;;4.93;2.17;;;37.20;99.90;;;;;;5024083;28;20437;-62
2022/08/24 13:09:55;;;;;;;3.73;2.27;;;37.00;99.90;;;;;;5031672;28;20476;-62
2022/08/24 13:12:45;;;;;;;5.07;2.53;;;36.60;99.90;;;;;;5011354;28;20445;-62
2022/08/24 13:15:24;;;;;;;4.37;2.60;;;36.40;99.90;;;;;;5021466;28;20449;-61
2022/08/24 13:17:54;;;;;;;3.70;2.33;;;36.40;99.90;;;;;;5033836;28;20451;-62
2022/08/24 13:20:22;;;;;;;8.20;2.60;;;36.70;99.90;;;;;;5036118;28;20504;-60
2022/08/24 13:23:17;;;;;;;3.57;2.40;;;36.70;99.90;;;;;;5041402;28;20464;-61
2022/08/24 13:25:45;;;;;;;3.27;2.63;;;36.80;99.90;;;;;;5046296;28;20425;-61